sensor_id;sensor_type;location;lat;lon;timestamp;P1;durP1;ratioP1;P2;durP2;ratioP2
16015;SDS011;8112;53.592;10.184;2022-09-09T00:00:33;26.67;;;15.47;;
16015;SDS011;8112;53.592;10.184;2022-09-09T00:05:41;30.83;;;14.90;;
16015;SDS011;8112;53.592;10.184;2022-09-09T00:10:51;20.50;;;13.67;;
16015;SDS011;8112;53.592;10.184;2022-09-09T00:16:00;29.73;;;13.60;;
16015;SDS011;8112;53.592;10.184;2022-09-09T00:21:07;21.90;;;15.07;;
16015;SDS011;8112;53.592;10.184;2022-09-09T00:26:16;25.67;;;14.43;;
16015;SDS011;8112;53.592;10.184;2022-09-09T00:31:25;24.13;;;13.63;;
16015;SDS011;8112;53.592;10.184;2022-09-09T00:36:30;24.63;;;12.90;;
16015;SDS011;8112;53.592;10.184;2022-09-09T00:41:38;20.97;;;12.97;;
16015;SDS011;8112;53.592;10.184;2022-09-09T00:46:53;17.40;;;13.60;;
16015;SDS011;8112;53.592;10.184;2022-09-09T00:52:06;16.37;;;12.30;;
16015;SDS011;8112;53.592;10.184;2022-09-09T00:57:23;17.17;;;11.57;;
16015;SDS011;8112;53.592;10.184;2022-09-09T01:02:28;17.87;;;13.30;;
16015;SDS011;8112;53.592;10.184;2022-09-09T01:07:39;16.67;;;13.27;;
16015;SDS011;8112;53.592;10.184;2022-09-09T01:12:46;16.93;;;12.37;;
16015;SDS011;8112;53.592;10.184;2022-09-09T01:17:55;16.43;;;12.60;;
16015;SDS011;8112;53.592;10.184;2022-09-09T01:28:50;18.50;;;13.00;;
16015;SDS011;8112;53.592;10.184;2022-09-09T01:33:57;16.80;;;12.30;;
16015;SDS011;8112;53.592;10.184;2022-09-09T01:39:02;13.90;;;11.87;;
16015;SDS011;8112;53.592;10.184;2022-09-09T01:44:06;15.70;;;12.53;;
16015;SDS011;8112;53.592;10.184;2022-09-09T01:49:11;17.67;;;12.47;;
16015;SDS011;8112;53.592;10.184;2022-09-09T01:54:13;17.17;;;13.73;;
16015;SDS011;8112;53.592;10.184;2022-09-09T01:59:21;19.80;;;12.80;;
16015;SDS011;8112;53.592;10.184;2022-09-09T02:04:39;15.10;;;12.53;;
16015;SDS011;8112;53.592;10.184;2022-09-09T02:09:49;17.03;;;13.10;;
16015;SDS011;8112;53.592;10.184;2022-09-09T02:15:03;17.13;;;13.20;;
16015;SDS011;8112;53.592;10.184;2022-09-09T02:20:20;14.57;;;12.77;;
16015;SDS011;8112;53.592;10.184;2022-09-09T02:25:32;21.00;;;14.20;;
16015;SDS011;8112;53.592;10.184;2022-09-09T02:30:48;20.47;;;12.33;;
16015;SDS011;8112;53.592;10.184;2022-09-09T02:35:59;18.47;;;11.93;;
16015;SDS011;8112;53.592;10.184;2022-09-09T02:41:05;17.10;;;11.67;;
16015;SDS011;8112;53.592;10.184;2022-09-09T02:46:12;15.53;;;13.07;;
16015;SDS011;8112;53.592;10.184;2022-09-09T02:51:28;17.43;;;13.37;;
16015;SDS011;8112;53.592;10.184;2022-09-09T02:56:39;18.33;;;12.07;;
16015;SDS011;8112;53.592;10.184;2022-09-09T03:01:48;19.70;;;12.77;;
16015;SDS011;8112;53.592;10.184;2022-09-09T03:06:50;19.47;;;12.80;;
16015;SDS011;8112;53.592;10.184;2022-09-09T03:11:54;16.53;;;12.17;;
16015;SDS011;8112;53.592;10.184;2022-09-09T03:16:58;16.03;;;13.27;;
16015;SDS011;8112;53.592;10.184;2022-09-09T03:22:03;18.67;;;13.60;;
16015;SDS011;8112;53.592;10.184;2022-09-09T03:27:07;15.43;;;12.20;;
16015;SDS011;8112;53.592;10.184;2022-09-09T03:32:13;15.13;;;12.80;;
16015;SDS011;8112;53.592;10.184;2022-09-09T03:37:18;13.00;;;11.20;;
16015;SDS011;8112;53.592;10.184;2022-09-09T03:42:21;14.10;;;12.60;;
16015;SDS011;8112;53.592;10.184;2022-09-09T03:47:27;15.07;;;12.93;;
16015;SDS011;8112;53.592;10.184;2022-09-09T03:52:37;15.30;;;13.30;;
16015;SDS011;8112;53.592;10.184;2022-09-09T03:57:43;14.20;;;11.53;;
16015;SDS011;8112;53.592;10.184;2022-09-09T04:02:48;16.23;;;12.37;;
16015;SDS011;8112;53.592;10.184;2022-09-09T04:07:51;16.17;;;13.17;;
16015;SDS011;8112;53.592;10.184;2022-09-09T04:12:55;17.23;;;13.00;;
16015;SDS011;8112;53.592;10.184;2022-09-09T04:17:58;14.50;;;13.00;;
16015;SDS011;8112;53.592;10.184;2022-09-09T04:23:01;16.87;;;12.73;;
16015;SDS011;8112;53.592;10.184;2022-09-09T04:28:03;18.00;;;13.83;;
16015;SDS011;8112;53.592;10.184;2022-09-09T04:33:07;14.97;;;12.70;;
16015;SDS011;8112;53.592;10.184;2022-09-09T04:38:09;14.60;;;12.67;;
16015;SDS011;8112;53.592;10.184;2022-09-09T04:43:11;12.53;;;11.20;;
16015;SDS011;8112;53.592;10.184;2022-09-09T04:48:16;14.07;;;12.33;;
16015;SDS011;8112;53.592;10.184;2022-09-09T04:53:18;12.87;;;11.40;;
16015;SDS011;8112;53.592;10.184;2022-09-09T04:58:30;13.27;;;11.83;;
16015;SDS011;8112;53.592;10.184;2022-09-09T05:03:33;14.10;;;11.60;;
16015;SDS011;8112;53.592;10.184;2022-09-09T05:08:36;12.83;;;11.37;;
16015;SDS011;8112;53.592;10.184;2022-09-09T05:13:39;11.63;;;10.33;;
16015;SDS011;8112;53.592;10.184;2022-09-09T05:18:43;11.03;;;9.83;;
16015;SDS011;8112;53.592;10.184;2022-09-09T05:23:45;11.50;;;9.87;;
16015;SDS011;8112;53.592;10.184;2022-09-09T05:28:47;12.50;;;9.47;;
16015;SDS011;8112;53.592;10.184;2022-09-09T05:33:51;9.53;;;8.60;;
16015;SDS011;8112;53.592;10.184;2022-09-09T05:38:53;10.70;;;9.43;;
16015;SDS011;8112;53.592;10.184;2022-09-09T05:43:55;9.60;;;8.60;;
16015;SDS011;8112;53.592;10.184;2022-09-09T05:49:01;9.47;;;8.57;;
16015;SDS011;8112;53.592;10.184;2022-09-09T05:54:06;8.93;;;8.07;;
16015;SDS011;8112;53.592;10.184;2022-09-09T05:59:12;9.33;;;8.00;;
16015;SDS011;8112;53.592;10.184;2022-09-09T06:04:16;8.90;;;7.73;;
16015;SDS011;8112;53.592;10.184;2022-09-09T06:09:18;8.13;;;7.17;;
16015;SDS011;8112;53.592;10.184;2022-09-09T06:14:20;7.87;;;7.00;;
16015;SDS011;8112;53.592;10.184;2022-09-09T06:19:25;7.87;;;7.07;;
16015;SDS011;8112;53.592;10.184;2022-09-09T06:24:29;8.07;;;7.27;;
16015;SDS011;8112;53.592;10.184;2022-09-09T06:29:34;7.67;;;6.87;;
16015;SDS011;8112;53.592;10.184;2022-09-09T06:34:38;6.57;;;5.97;;
16015;SDS011;8112;53.592;10.184;2022-09-09T06:39:40;6.20;;;5.60;;
16015;SDS011;8112;53.592;10.184;2022-09-09T06:44:42;6.53;;;5.27;;
16015;SDS011;8112;53.592;10.184;2022-09-09T06:49:50;6.10;;;5.43;;
16015;SDS011;8112;53.592;10.184;2022-09-09T06:54:53;7.13;;;5.73;;
16015;SDS011;8112;53.592;10.184;2022-09-09T06:59:55;13.90;;;5.00;;
16015;SDS011;8112;53.592;10.184;2022-09-09T07:05:00;5.20;;;4.63;;
16015;SDS011;8112;53.592;10.184;2022-09-09T07:10:03;5.23;;;4.27;;
16015;SDS011;8112;53.592;10.184;2022-09-09T07:15:07;4.70;;;4.20;;
16015;SDS011;8112;53.592;10.184;2022-09-09T07:20:11;5.17;;;3.70;;
16015;SDS011;8112;53.592;10.184;2022-09-09T07:25:15;4.43;;;3.37;;
16015;SDS011;8112;53.592;10.184;2022-09-09T07:30:21;4.30;;;3.80;;
16015;SDS011;8112;53.592;10.184;2022-09-09T07:35:25;3.83;;;3.40;;
16015;SDS011;8112;53.592;10.184;2022-09-09T07:40:33;4.27;;;3.83;;
16015;SDS011;8112;53.592;10.184;2022-09-09T07:45:40;4.23;;;3.23;;
16015;SDS011;8112;53.592;10.184;2022-09-09T07:50:46;4.60;;;3.53;;
16015;SDS011;8112;53.592;10.184;2022-09-09T07:55:48;4.03;;;3.63;;
16015;SDS011;8112;53.592;10.184;2022-09-09T08:00:50;4.37;;;3.63;;
16015;SDS011;8112;53.592;10.184;2022-09-09T08:05:53;6.20;;;3.70;;
16015;SDS011;8112;53.592;10.184;2022-09-09T08:11:06;4.17;;;3.40;;
16015;SDS011;8112;53.592;10.184;2022-09-09T08:16:10;6.33;;;3.47;;
16015;SDS011;8112;53.592;10.184;2022-09-09T08:21:17;2.50;;;2.27;;
16015;SDS011;8112;53.592;10.184;2022-09-09T08:26:20;3.73;;;3.07;;
16015;SDS011;8112;53.592;10.184;2022-09-09T08:31:25;3.40;;;3.10;;
16015;SDS011;8112;53.592;10.184;2022-09-09T08:36:31;5.13;;;2.73;;
16015;SDS011;8112;53.592;10.184;2022-09-09T08:41:37;2.53;;;2.33;;
16015;SDS011;8112;53.592;10.184;2022-09-09T08:46:47;3.10;;;2.43;;
16015;SDS011;8112;53.592;10.184;2022-09-09T08:52:02;2.73;;;2.17;;
16015;SDS011;8112;53.592;10.184;2022-09-09T08:57:09;2.67;;;2.03;;
16015;SDS011;8112;53.592;10.184;2022-09-09T09:02:15;4.60;;;2.17;;
16015;SDS011;8112;53.592;10.184;2022-09-09T09:07:28;2.33;;;1.83;;
16015;SDS011;8112;53.592;10.184;2022-09-09T09:12:41;2.67;;;2.07;;
16015;SDS011;8112;53.592;10.184;2022-09-09T09:17:49;2.97;;;1.90;;
16015;SDS011;8112;53.592;10.184;2022-09-09T09:22:53;4.03;;;1.83;;
16015;SDS011;8112;53.592;10.184;2022-09-09T09:27:59;2.27;;;1.90;;
16015;SDS011;8112;53.592;10.184;2022-09-09T09:33:08;4.00;;;2.10;;
16015;SDS011;8112;53.592;10.184;2022-09-09T09:38:23;2.57;;;2.07;;
16015;SDS011;8112;53.592;10.184;2022-09-09T09:43:31;2.30;;;1.63;;
16015;SDS011;8112;53.592;10.184;2022-09-09T09:48:37;2.13;;;1.70;;
16015;SDS011;8112;53.592;10.184;2022-09-09T09:53:41;1.43;;;1.33;;
16015;SDS011;8112;53.592;10.184;2022-09-09T09:58:49;2.17;;;1.23;;
16015;SDS011;8112;53.592;10.184;2022-09-09T10:04:13;2.10;;;1.33;;
16015;SDS011;8112;53.592;10.184;2022-09-09T10:09:22;2.00;;;1.20;;
16015;SDS011;8112;53.592;10.184;2022-09-09T10:14:30;1.13;;;0.90;;
16015;SDS011;8112;53.592;10.184;2022-09-09T10:19:49;2.13;;;1.30;;
16015;SDS011;8112;53.592;10.184;2022-09-09T10:30:36;3.90;;;1.20;;
16015;SDS011;8112;53.592;10.184;2022-09-09T10:35:50;3.17;;;1.37;;
16015;SDS011;8112;53.592;10.184;2022-09-09T10:41:09;1.37;;;0.93;;
16015;SDS011;8112;53.592;10.184;2022-09-09T10:46:19;1.93;;;0.93;;
16015;SDS011;8112;53.592;10.184;2022-09-09T10:51:33;3.03;;;1.00;;
16015;SDS011;8112;53.592;10.184;2022-09-09T10:56:44;2.13;;;1.00;;
16015;SDS011;8112;53.592;10.184;2022-09-09T11:01:55;1.63;;;1.00;;
16015;SDS011;8112;53.592;10.184;2022-09-09T11:07:07;2.80;;;0.70;;
16015;SDS011;8112;53.592;10.184;2022-09-09T11:12:18;2.53;;;1.30;;
16015;SDS011;8112;53.592;10.184;2022-09-09T11:17:23;2.27;;;1.10;;
16015;SDS011;8112;53.592;10.184;2022-09-09T11:22:36;1.50;;;0.87;;
16015;SDS011;8112;53.592;10.184;2022-09-09T11:27:43;3.40;;;1.30;;
16015;SDS011;8112;53.592;10.184;2022-09-09T11:33:16;6.10;;;1.10;;
16015;SDS011;8112;53.592;10.184;2022-09-09T11:38:40;1.87;;;1.20;;
16015;SDS011;8112;53.592;10.184;2022-09-09T11:43:48;3.87;;;1.20;;
16015;SDS011;8112;53.592;10.184;2022-09-09T11:48:57;2.30;;;1.00;;
16015;SDS011;8112;53.592;10.184;2022-09-09T11:54:02;2.15;;;1.08;;
16015;SDS011;8112;53.592;10.184;2022-09-09T11:59:26;2.03;;;1.05;;
16015;SDS011;8112;53.592;10.184;2022-09-09T12:04:31;1.77;;;1.10;;
16015;SDS011;8112;53.592;10.184;2022-09-09T12:09:43;2.20;;;0.83;;
16015;SDS011;8112;53.592;10.184;2022-09-09T12:14:59;1.63;;;1.10;;
16015;SDS011;8112;53.592;10.184;2022-09-09T12:20:17;1.20;;;1.00;;
16015;SDS011;8112;53.592;10.184;2022-09-09T12:25:23;2.37;;;1.53;;
16015;SDS011;8112;53.592;10.184;2022-09-09T12:30:34;1.80;;;1.10;;
16015;SDS011;8112;53.592;10.184;2022-09-09T12:35:43;2.73;;;1.47;;
16015;SDS011;8112;53.592;10.184;2022-09-09T12:40:53;3.57;;;1.30;;
16015;SDS011;8112;53.592;10.184;2022-09-09T12:45:59;5.57;;;1.50;;
16015;SDS011;8112;53.592;10.184;2022-09-09T12:51:05;2.60;;;1.23;;
16015;SDS011;8112;53.592;10.184;2022-09-09T12:56:18;1.87;;;1.53;;
16015;SDS011;8112;53.592;10.184;2022-09-09T13:01:24;4.00;;;1.70;;
16015;SDS011;8112;53.592;10.184;2022-09-09T13:06:30;3.33;;;1.90;;
16015;SDS011;8112;53.592;10.184;2022-09-09T13:11:34;2.83;;;2.03;;
16015;SDS011;8112;53.592;10.184;2022-09-09T13:16:53;3.57;;;1.60;;
16015;SDS011;8112;53.592;10.184;2022-09-09T13:21:57;2.43;;;1.53;;
16015;SDS011;8112;53.592;10.184;2022-09-09T13:27:00;3.37;;;1.80;;
16015;SDS011;8112;53.592;10.184;2022-09-09T13:32:05;5.67;;;1.90;;
16015;SDS011;8112;53.592;10.184;2022-09-09T13:37:16;3.53;;;1.80;;
16015;SDS011;8112;53.592;10.184;2022-09-09T13:42:24;4.10;;;1.80;;
16015;SDS011;8112;53.592;10.184;2022-09-09T13:47:30;2.30;;;2.10;;
16015;SDS011;8112;53.592;10.184;2022-09-09T13:52:34;3.50;;;2.20;;
16015;SDS011;8112;53.592;10.184;2022-09-09T13:57:36;5.63;;;2.47;;
16015;SDS011;8112;53.592;10.184;2022-09-09T14:02:41;3.40;;;2.60;;
16015;SDS011;8112;53.592;10.184;2022-09-09T14:07:44;2.73;;;2.00;;
16015;SDS011;8112;53.592;10.184;2022-09-09T14:13:23;2.73;;;2.27;;
16015;SDS011;8112;53.592;10.184;2022-09-09T14:18:33;4.30;;;2.23;;
16015;SDS011;8112;53.592;10.184;2022-09-09T14:23:41;4.60;;;2.43;;
16015;SDS011;8112;53.592;10.184;2022-09-09T14:28:43;4.37;;;2.63;;
16015;SDS011;8112;53.592;10.184;2022-09-09T14:45:46;3.43;;;1.87;;
16015;SDS011;8112;53.592;10.184;2022-09-09T14:50:52;5.60;;;2.37;;
16015;SDS011;8112;53.592;10.184;2022-09-09T14:55:55;2.40;;;2.20;;
16015;SDS011;8112;53.592;10.184;2022-09-09T15:01:06;4.10;;;2.80;;
16015;SDS011;8112;53.592;10.184;2022-09-09T15:06:10;3.97;;;2.73;;
16015;SDS011;8112;53.592;10.184;2022-09-09T15:11:14;4.00;;;2.13;;
16015;SDS011;8112;53.592;10.184;2022-09-09T15:16:18;3.20;;;1.97;;
16015;SDS011;8112;53.592;10.184;2022-09-09T15:21:21;3.00;;;1.87;;
16015;SDS011;8112;53.592;10.184;2022-09-09T15:26:24;3.23;;;2.53;;
16015;SDS011;8112;53.592;10.184;2022-09-09T15:31:29;4.70;;;1.80;;
16015;SDS011;8112;53.592;10.184;2022-09-09T15:36:32;4.27;;;1.97;;
16015;SDS011;8112;53.592;10.184;2022-09-09T15:41:35;3.03;;;2.00;;
16015;SDS011;8112;53.592;10.184;2022-09-09T15:46:39;4.97;;;2.23;;
16015;SDS011;8112;53.592;10.184;2022-09-09T15:51:42;2.77;;;2.30;;
16015;SDS011;8112;53.592;10.184;2022-09-09T15:56:46;5.73;;;3.10;;
16015;SDS011;8112;53.592;10.184;2022-09-09T16:01:52;6.23;;;3.17;;
16015;SDS011;8112;53.592;10.184;2022-09-09T16:06:56;3.83;;;2.83;;
16015;SDS011;8112;53.592;10.184;2022-09-09T16:11:59;4.17;;;2.53;;
16015;SDS011;8112;53.592;10.184;2022-09-09T16:17:04;4.30;;;2.80;;
16015;SDS011;8112;53.592;10.184;2022-09-09T16:22:07;3.50;;;2.77;;
16015;SDS011;8112;53.592;10.184;2022-09-09T16:27:12;3.50;;;2.83;;
16015;SDS011;8112;53.592;10.184;2022-09-09T16:32:15;4.33;;;2.27;;
16015;SDS011;8112;53.592;10.184;2022-09-09T16:37:17;2.53;;;2.00;;
16015;SDS011;8112;53.592;10.184;2022-09-09T16:42:19;2.60;;;1.90;;
16015;SDS011;8112;53.592;10.184;2022-09-09T16:47:24;1.43;;;1.33;;
16015;SDS011;8112;53.592;10.184;2022-09-09T16:52:27;2.90;;;1.70;;
16015;SDS011;8112;53.592;10.184;2022-09-09T16:57:29;1.27;;;0.93;;
16015;SDS011;8112;53.592;10.184;2022-09-09T17:02:32;1.60;;;1.07;;
16015;SDS011;8112;53.592;10.184;2022-09-09T17:07:34;2.97;;;1.73;;
16015;SDS011;8112;53.592;10.184;2022-09-09T17:12:35;1.63;;;1.37;;
16015;SDS011;8112;53.592;10.184;2022-09-09T17:17:38;1.37;;;1.20;;
16015;SDS011;8112;53.592;10.184;2022-09-09T17:22:43;1.60;;;1.50;;
16015;SDS011;8112;53.592;10.184;2022-09-09T17:27:45;2.60;;;1.60;;
16015;SDS011;8112;53.592;10.184;2022-09-09T17:32:48;1.50;;;1.40;;
16015;SDS011;8112;53.592;10.184;2022-09-09T17:37:52;3.30;;;2.00;;
16015;SDS011;8112;53.592;10.184;2022-09-09T17:42:56;4.07;;;2.10;;
16015;SDS011;8112;53.592;10.184;2022-09-09T17:47:59;2.77;;;1.80;;
16015;SDS011;8112;53.592;10.184;2022-09-09T17:53:02;3.97;;;1.93;;
16015;SDS011;8112;53.592;10.184;2022-09-09T17:58:09;2.47;;;2.07;;
16015;SDS011;8112;53.592;10.184;2022-09-09T18:03:12;2.87;;;2.50;;
16015;SDS011;8112;53.592;10.184;2022-09-09T18:08:13;2.90;;;2.33;;
16015;SDS011;8112;53.592;10.184;2022-09-09T18:13:15;2.63;;;2.33;;
16015;SDS011;8112;53.592;10.184;2022-09-09T18:18:18;3.87;;;2.40;;
16015;SDS011;8112;53.592;10.184;2022-09-09T18:23:20;6.13;;;2.57;;
16015;SDS011;8112;53.592;10.184;2022-09-09T18:28:21;3.10;;;2.47;;
16015;SDS011;8112;53.592;10.184;2022-09-09T18:33:25;2.60;;;2.40;;
16015;SDS011;8112;53.592;10.184;2022-09-09T18:38:26;3.00;;;2.53;;
16015;SDS011;8112;53.592;10.184;2022-09-09T18:43:28;4.70;;;2.27;;
16015;SDS011;8112;53.592;10.184;2022-09-09T18:48:32;3.83;;;2.77;;
16015;SDS011;8112;53.592;10.184;2022-09-09T18:53:34;2.93;;;2.30;;
16015;SDS011;8112;53.592;10.184;2022-09-09T18:58:37;2.87;;;2.57;;
16015;SDS011;8112;53.592;10.184;2022-09-09T19:03:41;2.63;;;2.17;;
16015;SDS011;8112;53.592;10.184;2022-09-09T19:08:44;2.90;;;2.33;;
16015;SDS011;8112;53.592;10.184;2022-09-09T19:13:48;2.40;;;2.20;;
16015;SDS011;8112;53.592;10.184;2022-09-09T19:18:52;2.70;;;1.87;;
16015;SDS011;8112;53.592;10.184;2022-09-09T19:23:57;2.50;;;2.30;;
16015;SDS011;8112;53.592;10.184;2022-09-09T19:29:00;2.63;;;2.30;;
16015;SDS011;8112;53.592;10.184;2022-09-09T19:39:20;2.47;;;2.27;;
16015;SDS011;8112;53.592;10.184;2022-09-09T19:44:22;2.23;;;2.03;;
16015;SDS011;8112;53.592;10.184;2022-09-09T19:49:26;4.90;;;2.53;;
16015;SDS011;8112;53.592;10.184;2022-09-09T19:54:28;3.20;;;2.40;;
16015;SDS011;8112;53.592;10.184;2022-09-09T19:59:30;2.87;;;2.50;;
16015;SDS011;8112;53.592;10.184;2022-09-09T20:04:33;2.80;;;2.17;;
16015;SDS011;8112;53.592;10.184;2022-09-09T20:09:35;2.70;;;2.47;;
16015;SDS011;8112;53.592;10.184;2022-09-09T20:14:37;3.97;;;2.50;;
16015;SDS011;8112;53.592;10.184;2022-09-09T20:19:40;2.53;;;2.17;;
16015;SDS011;8112;53.592;10.184;2022-09-09T20:24:42;2.67;;;1.83;;
16015;SDS011;8112;53.592;10.184;2022-09-09T20:29:43;2.87;;;2.47;;
16015;SDS011;8112;53.592;10.184;2022-09-09T20:34:47;2.67;;;2.13;;
16015;SDS011;8112;53.592;10.184;2022-09-09T20:39:50;2.93;;;2.60;;
16015;SDS011;8112;53.592;10.184;2022-09-09T20:44:54;3.50;;;2.47;;
16015;SDS011;8112;53.592;10.184;2022-09-09T20:49:57;4.13;;;2.43;;
16015;SDS011;8112;53.592;10.184;2022-09-09T20:54:59;2.53;;;2.33;;
16015;SDS011;8112;53.592;10.184;2022-09-09T21:00:01;3.20;;;2.37;;
16015;SDS011;8112;53.592;10.184;2022-09-09T21:05:06;2.80;;;2.50;;
16015;SDS011;8112;53.592;10.184;2022-09-09T21:10:10;2.87;;;2.30;;
16015;SDS011;8112;53.592;10.184;2022-09-09T21:15:14;3.47;;;2.43;;
16015;SDS011;8112;53.592;10.184;2022-09-09T21:20:17;2.20;;;1.97;;
16015;SDS011;8112;53.592;10.184;2022-09-09T21:25:20;3.30;;;2.30;;
16015;SDS011;8112;53.592;10.184;2022-09-09T21:30:22;2.97;;;2.27;;
16015;SDS011;8112;53.592;10.184;2022-09-09T21:35:25;5.10;;;2.63;;
16015;SDS011;8112;53.592;10.184;2022-09-09T21:40:35;4.63;;;2.27;;
16015;SDS011;8112;53.592;10.184;2022-09-09T21:45:38;2.47;;;2.27;;
16015;SDS011;8112;53.592;10.184;2022-09-09T21:50:42;2.40;;;2.20;;
16015;SDS011;8112;53.592;10.184;2022-09-09T21:55:49;3.17;;;2.33;;
16015;SDS011;8112;53.592;10.184;2022-09-09T22:00:56;3.40;;;2.90;;
16015;SDS011;8112;53.592;10.184;2022-09-09T22:06:00;4.37;;;2.60;;
16015;SDS011;8112;53.592;10.184;2022-09-09T22:11:05;4.17;;;2.30;;
16015;SDS011;8112;53.592;10.184;2022-09-09T22:16:10;3.23;;;2.77;;
16015;SDS011;8112;53.592;10.184;2022-09-09T22:21:15;3.10;;;2.23;;
16015;SDS011;8112;53.592;10.184;2022-09-09T22:26:18;3.43;;;2.67;;
16015;SDS011;8112;53.592;10.184;2022-09-09T22:31:20;5.07;;;2.53;;
16015;SDS011;8112;53.592;10.184;2022-09-09T22:36:24;2.40;;;2.13;;
16015;SDS011;8112;53.592;10.184;2022-09-09T22:41:27;3.80;;;2.20;;
16015;SDS011;8112;53.592;10.184;2022-09-09T22:46:35;5.60;;;2.23;;
16015;SDS011;8112;53.592;10.184;2022-09-09T22:51:49;3.77;;;2.40;;
16015;SDS011;8112;53.592;10.184;2022-09-09T22:57:13;2.20;;;2.00;;
16015;SDS011;8112;53.592;10.184;2022-09-09T23:02:30;5.43;;;2.20;;
16015;SDS011;8112;53.592;10.184;2022-09-09T23:07:42;2.70;;;2.20;;
16015;SDS011;8112;53.592;10.184;2022-09-09T23:12:46;3.40;;;2.27;;
16015;SDS011;8112;53.592;10.184;2022-09-09T23:18:00;5.40;;;2.73;;
16015;SDS011;8112;53.592;10.184;2022-09-09T23:23:07;3.47;;;2.10;;
16015;SDS011;8112;53.592;10.184;2022-09-09T23:28:10;3.00;;;2.40;;
16015;SDS011;8112;53.592;10.184;2022-09-09T23:33:19;4.90;;;2.00;;
16015;SDS011;8112;53.592;10.184;2022-09-09T23:38:24;3.17;;;2.63;;
16015;SDS011;8112;53.592;10.184;2022-09-09T23:43:32;2.60;;;2.20;;
16015;SDS011;8112;53.592;10.184;2022-09-09T23:48:37;3.97;;;2.43;;
16015;SDS011;8112;53.592;10.184;2022-09-09T23:53:41;4.87;;;2.83;;
16015;SDS011;8112;53.592;10.184;2022-09-09T23:58:50;3.23;;;2.47;;
